Texas General Land Office
 Texas General Land Office
 George P. Bush, Commissioner

 Oil Spill Prevention
 & Response

Texas Automated Buoy System
Real Time Ocean Observations
Supporting Oil Spill Prevention and
Response since 1995
Geochemical and Environmental Research Group

NOAA - NDBC Buoy 42035 -- Texas Automated Buoy System

NBDC Buoy 42035
Galveston
Conditions at 01/20/2019 18:30 UTC (01/20/2019 12:30 CST)
29° 14.7830'N   94° 24.5000'W
22NM East of Galveston, TX
Anemometer height: 5m
Water Depth: 52 feet (16 meters)
Wind: 6.0 m/s (11.7 kts)
          From 350°T (N)
Wind Gust: 8.00 m/s (15.6 kts) Pressure: 1029.1 mb (30.39 inHg)
Air Temp: 4°C (40 °F) Dewpoint: 2°C (35°F) Relative Humidity: 82%
Sea Surf Temp: 14 °C (58 °F) Wave Height: 0.6m (2.0 ft) Wave Period: 4
  


IMPORTANT: Notice to Mariners


Today's Velocity Data

  Buoy     Date      Time     East   North   Speed  Dir(°T) Wave Ht WvPer  Num
|  ID  |          |  (UTC) | (m/s) | (m/s) | (m/s) |(FROM) |  (m)  | secs| pts |
+======+==========+========+=======+=======+=======+=======+=======+=====+=====+
  42035 01/17/2019 00:10:00    6.58   -2.39    7.00     110     0.0     0     1
  42035 01/17/2019 00:20:00    5.64   -2.05    6.00     110     0.8     4     1
  42035 01/17/2019 00:30:00    5.64   -2.05    6.00     110     0.0     0     1
  42035 01/17/2019 00:40:00    5.64   -2.05    6.00     110     0.0     0     1
  42035 01/17/2019 00:50:00    5.64   -2.05    6.00     110     0.0     0     1
  42035 01/17/2019 06:00:00    4.45   -3.75    5.82     130     0.2     1    31
  42035 01/17/2019 06:10:00    2.50   -4.33    5.00     150     0.0     0     1
  42035 01/17/2019 06:20:00    2.50   -4.33    5.00     150     1.0     5     1
  42035 01/17/2019 06:30:00    3.00   -5.20    6.00     150     0.0     0     1
  42035 01/17/2019 06:40:00    3.00   -5.20    6.00     150     0.0     0     1
  42035 01/17/2019 06:50:00    1.71   -4.70    5.00     160     0.0     0     1
  42035 01/17/2019 12:00:00    0.36   -3.39    3.41     174     0.3     1    31
  42035 01/17/2019 12:10:00   -2.30   -1.93    3.00     230     0.0     0     1
  42035 01/17/2019 12:20:00   -1.88   -0.68    2.00     250     1.1     6     1
  42035 01/17/2019 12:30:00   -3.00    0.00    3.00     270     0.0     0     1
  42035 01/17/2019 12:40:00   -1.88   -0.68    2.00     250     0.0     0     1
  42035 01/17/2019 12:50:00   -1.73   -1.00    2.00     240     0.0     0     1
  42035 01/17/2019 18:00:00   -0.11   -1.46    1.46     184     0.3     1    31
  42035 01/17/2019 18:10:00   -3.83   -3.21    5.00     230     0.0     0     1
  42035 01/17/2019 18:20:00   -3.21   -3.83    5.00     220     1.0     5     1
  42035 01/17/2019 18:30:00   -3.21   -3.83    5.00     220     0.0     0     1
  42035 01/17/2019 18:40:00   -3.83   -3.21    5.00     230     0.0     0     1
  42035 01/17/2019 18:50:00   -4.60   -3.86    6.00     230     0.0     0     1
  42035 01/18/2019 00:00:00   -5.13   -5.06    7.21     225     0.2     1    31
  42035 01/18/2019 00:10:00   -4.50   -5.36    7.00     220     0.0     0     1
  42035 01/18/2019 00:20:00   -4.50   -5.36    7.00     220     0.9     5     1
  42035 01/18/2019 00:30:00   -5.36   -4.50    7.00     230     0.0     0     1
  42035 01/18/2019 00:40:00   -4.60   -3.86    6.00     230     0.0     0     1
  42035 01/18/2019 00:50:00   -4.60   -3.86    6.00     230     0.0     0     1
  42035 01/18/2019 06:00:00   -3.86   -2.97    4.87     232     0.2     1    31
  42035 01/18/2019 06:10:00   -2.57   -3.06    4.00     220     0.6     0     1
  42035 01/18/2019 06:20:00   -3.06   -2.57    4.00     230     0.6     5     1
  42035 01/18/2019 06:30:00   -3.06   -2.57    4.00     230     0.0     0     1
  42035 01/18/2019 06:40:00   -3.06   -2.57    4.00     230     0.0     0     1
  42035 01/18/2019 06:50:00   -3.06   -2.57    4.00     230     0.0     0     1
  42035 01/18/2019 12:00:00   -2.76   -1.16    2.99     247     0.1     1    31
  42035 01/18/2019 12:10:00   -1.00    0.00    1.00     270     0.4     0     1
  42035 01/18/2019 12:20:00   -0.94    0.34    1.00     290     0.4     5     1
  42035 01/18/2019 12:30:00   -0.77    0.64    1.00     310     0.0     0     1
  42035 01/18/2019 12:40:00   97.78   15.49   99.00      81     0.0     0     1
  42035 01/18/2019 12:50:00   97.78   15.49   99.00      81     0.0     0     1
  42035 01/18/2019 18:00:00    8.39   -0.05    8.39      90     0.1     1    31
  42035 01/18/2019 18:10:00    3.46   -2.00    4.00     120     0.0     0     1
  42035 01/18/2019 18:20:00    3.46   -2.00    4.00     120     0.3     5     1
  42035 01/18/2019 18:30:00    3.06   -2.57    4.00     130     0.0     0     1
  42035 01/18/2019 18:40:00    3.46   -2.00    4.00     120     0.0     0     1
  42035 01/18/2019 18:50:00    3.46   -2.00    4.00     120     0.0     0     1
  42035 01/19/2019 00:00:00    2.93   -5.46    6.19     152     0.1     1    31
  42035 01/19/2019 00:10:00    3.50   -6.06    7.00     150     0.6     0     1
  42035 01/19/2019 00:20:00    5.14   -6.13    8.00     140     0.6     3     1
  42035 01/19/2019 00:30:00    5.14   -6.13    8.00     140     0.0     0     1
  42035 01/19/2019 00:40:00    3.86   -4.60    6.00     140     0.0     0     1
  42035 01/19/2019 00:50:00    1.71   -4.70    5.00     160     0.0     0     1
  42035 01/19/2019 06:00:00    1.30   -7.21    7.32     170     0.2     1    31
  42035 01/19/2019 06:10:00    0.00   -7.00    7.00     180     1.0     0     1
  42035 01/19/2019 06:20:00    0.00   -7.00    7.00     180     1.0     5     1
  42035 01/19/2019 06:30:00    0.00   -7.00    7.00     180     0.0     0     1
  42035 01/19/2019 06:40:00    0.00   -7.00    7.00     180     0.0     0     1
  42035 01/19/2019 06:50:00    0.00   -7.00    7.00     180     0.0     0     1
  42035 01/19/2019 12:00:00    0.65   -4.41    4.45     172     0.3     1    31
  42035 01/19/2019 12:10:00   -5.91   -1.04    6.00     260     1.4     0     1
  42035 01/19/2019 12:20:00   -6.00    0.00    6.00     270     1.4     7     1
  42035 01/19/2019 12:30:00   -4.92   -0.87    5.00     260     0.0     0     1
  42035 01/19/2019 12:40:00   -4.92   -0.87    5.00     260     0.0     0     1
  42035 01/19/2019 12:50:00   -4.70   -1.71    5.00     250     0.0     0     1
  42035 01/19/2019 18:00:00   -6.85    6.70    9.58     314     0.5     1    31
  42035 01/19/2019 18:10:00  -10.72    9.00   14.00     310     0.0     0     1
  42035 01/19/2019 18:20:00   -9.00   10.72   14.00     320     1.7     5     1
  42035 01/19/2019 18:30:00   -9.96    8.36   13.00     310     0.0     0     1
  42035 01/19/2019 18:40:00   -9.96    8.36   13.00     310     0.0     0     1
  42035 01/19/2019 18:50:00   -9.96    8.36   13.00     310     0.0     0     1
  42035 01/20/2019 00:00:00  -10.18    9.36   13.83     313     0.5     1    31
  42035 01/20/2019 00:10:00   -8.36    9.96   13.00     320     0.0     0     1
  42035 01/20/2019 00:20:00   -9.00   10.72   14.00     320     1.6     5     1
  42035 01/20/2019 00:30:00   -9.00   10.72   14.00     320     0.0     0     1
  42035 01/20/2019 00:40:00  -10.72    9.00   14.00     310     0.0     0     1
  42035 01/20/2019 00:50:00   -9.00   10.72   14.00     320     0.0     0     1
  42035 01/20/2019 06:00:00   -8.22   11.55   14.17     325     0.5     1    31
  42035 01/20/2019 06:10:00   -6.50   11.26   13.00     330     1.7     0     1
  42035 01/20/2019 06:20:00   -6.00   10.39   12.00     330     1.7     5     1
  42035 01/20/2019 06:30:00   -6.00   10.39   12.00     330     0.0     0     1
  42035 01/20/2019 06:40:00   -6.00   10.39   12.00     330     0.0     0     1
  42035 01/20/2019 06:50:00   -6.00   10.39   12.00     330     0.0     0     1
  42035 01/20/2019 12:00:00   -4.52   10.45   11.39     337     0.3     1    31
  42035 01/20/2019 12:10:00   -2.08   11.82   12.00     350     0.0     0     1
  42035 01/20/2019 12:20:00   -4.10   11.28   12.00     340     1.4     5     1
  42035 01/20/2019 12:30:00   -2.08   11.82   12.00     350     0.0     0     1
  42035 01/20/2019 12:40:00   -2.08   11.82   12.00     350     0.0     0     1
  42035 01/20/2019 12:50:00   -1.91   10.83   11.00     350     0.0     0     1
  42035 01/20/2019 18:00:00   -1.00    8.04    8.10     353     0.3     1    31
  42035 01/20/2019 18:10:00   -1.71    4.70    5.00     340     0.6     0     1
  42035 01/20/2019 18:20:00   -0.87    4.92    5.00     350     0.6     4     1
  42035 01/20/2019 18:30:00   -0.87    4.92    5.00     350     0.0     0     1